メインページ
METAR-TAF:

METAR-TAF

空港 :

ジュネーヴ空港

ジュネーヴ, スイス

緯度: 46-15N, 経度: 006-08E, 海抜: 420m

現時点の気象観測

当レポートは16分前の07:20(UTC)に作成
変向風 1kt
気温 22°C
湿度 69%
気圧 1023 hPa
視程10km以上
高度4000ftの雲はほとんどない

METAR: LSGG 190720Z VRB01KT 9999 FEW040 22/16 Q1023 NOSIG

時間: 09:36 (07:36 UTC)

予報

当レポートは2時間11分前の05:25(UTC)に作成
予報は19日の 06時(UTC)から 20日の 12時(UTC)まで有効
変向風 1kt
視程10km以上
高度4000ftの雲はほとんどない
19日の 07時(UTC)から 19日の 10時(UTC)まで徐々に
北東の風 7kt
確率 30% :
19日の 12時(UTC)から 19日の 18時(UTC)まで一時的に
高度5000ftの雲はほとんどない, 塔状積雲.
19日の 17時(UTC)から 19日の 20時(UTC)まで徐々に
変向風 3kt
視程10km以上
1,500メートル以下は雲なし、積乱雲なし
20日の 08時(UTC)から 20日の 11時(UTC)まで徐々に
北東の風 7kt
視程10km以上
高度5000ftの雲はほとんどない

TAF: LSGG 190525Z 1906/2012 VRB01KT 9999 FEW040 TX28/1915Z TN18/1906Z TN15/2005Z BECMG 1907/1910 05007KT PROB30 TEMPO 1912/1918 FEW050TCU BECMG 1917/1920 VRB03KT CAVOK BECMG 2008/2011 04007KT 9999 FEW050

4,000以上の空港の気象観測と天気予報(METAR報とTAF報)

利用可能な観測所は地図上に黄色い丸と赤い丸で示す。

丸の上にカーソルを重ねると観測所名を参照できる。

次にクリックすると気象観測と天気予報を参照できる。

マップの切り替え:黒色「×」印の緑ボタンをクリックして拡大、「-」印の緑ボタンをクリックして縮小、緑色の三角印をクリックして隣りの地図に切り替え


METAR-TAF: